Time,TemperatureF,DewpointF,PressureIn,WindDirection,WindDirectionDegrees,WindSpeedMPH,WindSpeedGustMPH,Humidity,HourlyPrecipIn,Conditions,Clouds,dailyrainin,SolarRadiationWatts/m^2,SoftwareType,DateUTC
2013-01-31 00:03:00,42.2,38.6,30.30,ESE,118,0.0,0.0,87,0.00,,,0.00,0,WeatherTracker,2013-01-31 08:03:00,
2013-01-31 00:08:00,42.1,38.5,30.30,ESE,118,0.0,0.0,87,0.00,,,0.00,0,WeatherTracker,2013-01-31 08:08:00,
2013-01-31 00:13:00,42.0,38.4,30.30,ESE,118,0.0,0.0,87,0.00,,,0.00,0,WeatherTracker,2013-01-31 08:13:00,
2013-01-31 00:18:00,42.0,38.4,30.30,ESE,118,0.0,0.0,87,0.00,,,0.00,0,WeatherTracker,2013-01-31 08:18:00,
2013-01-31 00:23:00,41.9,38.3,30.30,ESE,118,0.0,0.0,87,0.00,,,0.00,0,WeatherTracker,2013-01-31 08:23:00,
2013-01-31 00:28:00,41.8,38.2,30.30,ESE,118,0.0,0.0,87,0.00,,,0.00,0,WeatherTracker,2013-01-31 08:28:00,
2013-01-31 00:33:00,41.8,38.2,30.30,ESE,118,0.0,0.0,87,0.00,,,0.00,0,WeatherTracker,2013-01-31 08:33:00,
2013-01-31 00:38:00,41.8,38.5,30.30,ESE,118,0.0,0.0,88,0.00,,,0.00,0,WeatherTracker,2013-01-31 08:38:00,
2013-01-31 00:43:00,41.7,38.1,30.30,ESE,118,0.0,0.0,87,0.00,,,0.00,0,WeatherTracker,2013-01-31 08:43:00,
2013-01-31 00:48:00,41.6,38.0,30.30,ESE,118,0.0,0.0,87,0.00,,,0.00,0,WeatherTracker,2013-01-31 08:48:00,
2013-01-31 00:53:00,41.5,38.2,30.30,ESE,118,0.0,0.0,88,0.00,,,0.00,0,WeatherTracker,2013-01-31 08:53:00,
2013-01-31 00:58:00,41.6,38.3,30.30,ESE,118,0.0,0.0,88,0.00,,,0.00,0,WeatherTracker,2013-01-31 08:58:00,
2013-01-31 01:04:00,41.6,38.3,30.30,ESE,118,0.0,0.0,88,0.00,,,0.00,0,WeatherTracker,2013-01-31 09:04:00,
2013-01-31 01:09:00,41.5,38.2,30.30,ESE,118,0.0,0.0,88,0.00,,,0.00,0,WeatherTracker,2013-01-31 09:09:00,
2013-01-31 01:14:00,41.3,38.0,30.30,ESE,118,0.0,0.0,88,0.00,,,0.00,0,WeatherTracker,2013-01-31 09:14:00,
2013-01-31 01:19:00,41.2,37.9,30.30,ESE,118,0.0,0.0,88,0.00,,,0.00,0,WeatherTracker,2013-01-31 09:19:00,
2013-01-31 01:24:00,41.2,37.9,30.30,ESE,118,0.0,0.0,88,0.00,,,0.00,0,WeatherTracker,2013-01-31 09:24:00,
2013-01-31 01:29:00,41.2,37.9,30.29,ESE,118,0.0,0.0,88,0.00,,,0.00,0,WeatherTracker,2013-01-31 09:29:00,
2013-01-31 01:34:00,41.2,37.9,30.29,ESE,118,0.0,0.0,88,0.00,,,0.00,0,WeatherTracker,2013-01-31 09:34:00,
2013-01-31 01:39:00,41.2,37.9,30.29,ESE,118,0.0,0.0,88,0.00,,,0.00,0,WeatherTracker,2013-01-31 09:39:00,
2013-01-31 01:44:00,41.1,37.8,30.29,ESE,118,0.0,0.0,88,0.00,,,0.00,0,WeatherTracker,2013-01-31 09:44:00,
2013-01-31 01:49:00,41.1,37.8,30.30,ESE,118,0.0,0.0,88,0.00,,,0.00,0,WeatherTracker,2013-01-31 09:49:00,
2013-01-31 01:54:00,41.1,37.8,30.30,ESE,118,0.0,0.0,88,0.00,,,0.00,0,WeatherTracker,2013-01-31 09:54:00,
2013-01-31 01:59:00,41.0,37.7,30.29,ESE,118,0.0,0.0,88,0.00,,,0.00,0,WeatherTracker,2013-01-31 09:59:00,
2013-01-31 02:04:00,41.0,37.7,30.29,ESE,118,0.0,0.0,88,0.00,,,0.00,0,WeatherTracker,2013-01-31 10:04:00,
2013-01-31 02:09:00,40.8,37.5,30.30,ESE,118,0.0,0.0,88,0.00,,,0.00,0,WeatherTracker,2013-01-31 10:09:00,
2013-01-31 02:14:00,40.8,37.5,30.29,ESE,118,0.0,0.0,88,0.00,,,0.00,0,WeatherTracker,2013-01-31 10:14:00,
2013-01-31 02:19:00,40.8,37.5,30.30,ESE,118,0.0,0.0,88,0.00,,,0.00,0,WeatherTracker,2013-01-31 10:19:00,
2013-01-31 02:24:00,40.7,37.4,30.30,ESE,118,0.0,0.0,88,0.00,,,0.00,0,WeatherTracker,2013-01-31 10:24:00,
2013-01-31 02:29:00,40.7,37.4,30.29,ESE,118,0.0,0.0,88,0.00,,,0.00,0,WeatherTracker,2013-01-31 10:29:00,
2013-01-31 02:34:00,40.6,37.3,30.29,ESE,118,0.0,0.0,88,0.00,,,0.00,0,WeatherTracker,2013-01-31 10:34:00,
2013-01-31 02:39:00,40.6,37.3,30.29,ESE,118,0.0,0.0,88,0.00,,,0.00,0,WeatherTracker,2013-01-31 10:39:00,
2013-01-31 02:44:00,40.6,37.6,30.29,ESE,118,0.0,0.0,89,0.00,,,0.00,0,WeatherTracker,2013-01-31 10:44:00,
2013-01-31 02:49:00,40.7,37.7,30.29,ESE,117,0.0,0.0,89,0.00,,,0.00,0,WeatherTracker,2013-01-31 10:49:00,
2013-01-31 02:55:00,40.7,37.7,30.29,ESE,117,0.0,0.0,89,0.00,,,0.00,0,WeatherTracker,2013-01-31 10:55:00,
2013-01-31 03:00:00,40.7,37.7,30.29,ESE,114,0.0,0.0,89,0.00,,,0.00,0,WeatherTracker,2013-01-31 11:00:00,
2013-01-31 03:05:00,40.7,37.7,30.29,ESE,111,0.0,0.0,89,0.00,,,0.00,0,WeatherTracker,2013-01-31 11:05:00,
2013-01-31 03:10:00,40.8,37.8,30.28,ESE,107,0.0,0.0,89,0.00,,,0.00,0,WeatherTracker,2013-01-31 11:10:00,
2013-01-31 03:15:00,40.8,37.8,30.28,ESE,107,0.0,0.0,89,0.00,,,0.00,0,WeatherTracker,2013-01-31 11:15:00,
2013-01-31 03:20:00,40.7,37.7,30.28,ESE,107,0.0,0.0,89,0.00,,,0.00,0,WeatherTracker,2013-01-31 11:20:00,
2013-01-31 03:25:00,40.6,37.6,30.28,ESE,107,0.0,0.0,89,0.00,,,0.00,0,WeatherTracker,2013-01-31 11:25:00,
2013-01-31 03:30:00,40.5,37.5,30.29,ESE,107,0.0,0.0,89,0.00,,,0.00,0,WeatherTracker,2013-01-31 11:30:00,
2013-01-31 03:35:00,40.5,37.5,30.29,ESE,107,0.0,0.0,89,0.00,,,0.00,0,WeatherTracker,2013-01-31 11:35:00,
2013-01-31 03:40:00,40.4,37.4,30.29,ESE,107,0.0,0.0,89,0.00,,,0.00,0,WeatherTracker,2013-01-31 11:40:00,
2013-01-31 03:45:00,40.3,37.3,30.28,ESE,107,0.0,0.0,89,0.00,,,0.00,0,WeatherTracker,2013-01-31 11:45:00,
2013-01-31 03:50:00,40.2,37.2,30.29,ESE,107,0.0,0.0,89,0.00,,,0.00,0,WeatherTracker,2013-01-31 11:50:00,
2013-01-31 03:55:00,40.0,37.0,30.29,ESE,107,0.0,0.0,89,0.00,,,0.00,0,WeatherTracker,2013-01-31 11:55:00,
2013-01-31 04:00:00,39.8,36.8,30.29,ESE,107,0.0,0.0,89,0.00,,,0.00,0,WeatherTracker,2013-01-31 12:00:00,
2013-01-31 04:05:00,39.7,36.4,30.28,ESE,107,0.0,0.0,88,0.00,,,0.00,0,WeatherTracker,2013-01-31 12:05:00,
2013-01-31 04:10:00,39.5,36.5,30.28,ESE,107,0.0,0.0,89,0.00,,,0.00,0,WeatherTracker,2013-01-31 12:10:00,
2013-01-31 04:16:00,39.4,36.4,30.28,ESE,107,0.0,0.0,89,0.00,,,0.00,0,WeatherTracker,2013-01-31 12:16:00,
2013-01-31 04:21:00,39.2,36.2,30.28,ESE,107,0.0,0.0,89,0.00,,,0.00,0,WeatherTracker,2013-01-31 12:21:00,
2013-01-31 04:26:00,39.2,36.2,30.29,ESE,107,0.0,0.0,89,0.00,,,0.00,0,WeatherTracker,2013-01-31 12:26:00,
2013-01-31 04:31:00,39.1,36.1,30.28,ESE,107,0.0,0.0,89,0.00,,,0.00,0,WeatherTracker,2013-01-31 12:31:00,
2013-01-31 04:36:00,39.0,36.0,30.28,ESE,107,0.0,0.0,89,0.00,,,0.00,0,WeatherTracker,2013-01-31 12:36:00,
2013-01-31 04:41:00,38.9,35.9,30.28,ESE,107,0.0,0.0,89,0.00,,,0.00,0,WeatherTracker,2013-01-31 12:41:00,
2013-01-31 04:46:00,38.8,35.8,30.28,ESE,107,0.0,0.0,89,0.00,,,0.00,0,WeatherTracker,2013-01-31 12:46:00,
2013-01-31 04:51:00,38.8,35.8,30.28,ESE,107,0.0,0.0,89,0.00,,,0.00,0,WeatherTracker,2013-01-31 12:51:00,
2013-01-31 04:56:00,38.7,35.7,30.28,ESE,107,0.0,0.0,89,0.00,,,0.00,0,WeatherTracker,2013-01-31 12:56:00,
2013-01-31 05:01:00,38.7,35.7,30.29,ESE,107,0.0,0.0,89,0.00,,,0.00,0,WeatherTracker,2013-01-31 13:01:00,
2013-01-31 05:06:00,38.7,35.7,30.29,ESE,107,0.0,0.0,89,0.00,,,0.00,0,WeatherTracker,2013-01-31 13:06:00,
2013-01-31 05:11:00,38.7,35.7,30.29,ESE,107,0.0,0.0,89,0.00,,,0.00,0,WeatherTracker,2013-01-31 13:11:00,
2013-01-31 05:16:00,38.8,35.8,30.29,ESE,107,0.0,0.0,89,0.00,,,0.00,0,WeatherTracker,2013-01-31 13:16:00,
2013-01-31 05:21:00,38.7,35.7,30.29,ESE,107,0.0,0.0,89,0.00,,,0.00,0,WeatherTracker,2013-01-31 13:21:00,
2013-01-31 05:26:00,38.6,35.6,30.29,ESE,107,0.0,0.0,89,0.00,,,0.00,0,WeatherTracker,2013-01-31 13:26:00,
2013-01-31 05:31:00,38.5,35.5,30.29,ESE,107,0.0,0.0,89,0.00,,,0.00,0,WeatherTracker,2013-01-31 13:31:00,
2013-01-31 05:36:00,38.4,35.4,30.29,ESE,107,0.0,0.0,89,0.00,,,0.00,0,WeatherTracker,2013-01-31 13:36:00,
2013-01-31 05:41:00,38.3,35.3,30.29,ESE,107,0.0,0.0,89,0.00,,,0.00,0,WeatherTracker,2013-01-31 13:41:00,
2013-01-31 05:46:00,38.3,35.3,30.30,ESE,107,0.0,0.0,89,0.00,,,0.00,0,WeatherTracker,2013-01-31 13:46:00,
2013-01-31 05:51:00,38.3,35.3,30.30,ESE,107,0.0,0.0,89,0.00,,,0.00,0,WeatherTracker,2013-01-31 13:51:00,
2013-01-31 05:56:00,38.1,35.2,30.29,ESE,107,0.0,0.0,89,0.00,,,0.00,0,WeatherTracker,2013-01-31 13:56:00,
2013-01-31 06:02:00,38.0,35.1,30.30,ESE,107,0.0,0.0,89,0.00,,,0.00,0,WeatherTracker,2013-01-31 14:02:00,
2013-01-31 06:07:00,37.9,35.0,30.30,ESE,107,0.0,0.0,89,0.00,,,0.00,0,WeatherTracker,2013-01-31 14:07:00,
2013-01-31 06:12:00,37.9,35.0,30.30,ESE,107,0.0,0.0,89,0.00,,,0.00,0,WeatherTracker,2013-01-31 14:12:00,
2013-01-31 06:17:00,37.8,34.9,30.30,ESE,107,0.0,0.0,89,0.00,,,0.00,0,WeatherTracker,2013-01-31 14:17:00,
2013-01-31 06:22:00,37.8,34.9,30.30,ESE,107,0.0,0.0,89,0.00,,,0.00,0,WeatherTracker,2013-01-31 14:22:00,
2013-01-31 06:27:00,37.7,34.8,30.30,ESE,107,0.0,0.0,89,0.00,,,0.00,0,WeatherTracker,2013-01-31 14:27:00,
2013-01-31 06:32:00,37.6,34.7,30.30,ESE,107,0.0,0.0,89,0.00,,,0.00,0,WeatherTracker,2013-01-31 14:32:00,
2013-01-31 06:37:00,37.6,34.7,30.30,ESE,107,0.0,0.0,89,0.00,,,0.00,0,WeatherTracker,2013-01-31 14:37:00,
2013-01-31 06:42:00,37.6,34.7,30.30,ESE,107,0.0,0.0,89,0.00,,,0.00,0,WeatherTracker,2013-01-31 14:42:00,
2013-01-31 06:47:00,37.6,34.7,30.31,ESE,107,0.0,0.0,89,0.00,,,0.00,0,WeatherTracker,2013-01-31 14:47:00,
2013-01-31 06:52:00,37.7,34.8,30.31,ESE,107,0.0,0.0,89,0.00,,,0.00,0,WeatherTracker,2013-01-31 14:52:00,
2013-01-31 06:57:00,37.6,34.7,30.31,ESE,107,0.0,0.0,89,0.00,,,0.00,0,WeatherTracker,2013-01-31 14:57:00,
2013-01-31 07:02:00,37.5,34.6,30.31,ESE,107,0.0,0.0,89,0.00,,,0.00,0,WeatherTracker,2013-01-31 15:02:00,
2013-01-31 07:07:00,37.5,34.6,30.30,ESE,107,0.0,0.0,89,0.00,,,0.00,0,WeatherTracker,2013-01-31 15:07:00,
2013-01-31 07:12:00,37.4,34.5,30.31,ESE,107,0.0,0.0,89,0.00,,,0.00,5,WeatherTracker,2013-01-31 15:12:00,
2013-01-31 07:17:00,37.3,34.4,30.31,ESE,107,0.0,0.0,89,0.00,,,0.00,7,WeatherTracker,2013-01-31 15:17:00,
2013-01-31 07:22:00,37.3,34.4,30.31,ESE,107,0.0,0.0,89,0.00,,,0.00,11,WeatherTracker,2013-01-31 15:22:00,
2013-01-31 07:27:00,37.3,34.4,30.31,ESE,107,0.0,0.0,89,0.00,,,0.00,14,WeatherTracker,2013-01-31 15:27:00,
2013-01-31 07:32:00,37.3,34.4,30.31,ESE,107,0.0,0.0,89,0.00,,,0.00,19,WeatherTracker,2013-01-31 15:32:00,
2013-01-31 07:37:00,37.4,34.5,30.30,ESE,107,0.0,0.0,89,0.00,,,0.00,23,WeatherTracker,2013-01-31 15:37:00,
2013-01-31 07:42:00,37.5,34.6,30.31,ESE,107,0.0,0.0,89,0.00,,,0.00,26,WeatherTracker,2013-01-31 15:42:00,
2013-01-31 07:48:00,37.7,34.8,30.31,ESE,107,0.0,0.0,89,0.00,,,0.00,30,WeatherTracker,2013-01-31 15:48:00,
2013-01-31 07:53:00,37.9,35.0,30.31,ESE,107,0.0,0.0,89,0.00,,,0.00,42,WeatherTracker,2013-01-31 15:53:00,
2013-01-31 07:58:00,38.3,35.3,30.31,ESE,107,0.0,0.0,89,0.00,,,0.00,56,WeatherTracker,2013-01-31 15:58:00,
2013-01-31 08:03:00,39.0,36.0,30.31,ESE,107,0.0,0.0,89,0.00,,,0.00,86,WeatherTracker,2013-01-31 16:03:00,
2013-01-31 08:08:00,39.8,36.8,30.31,ESE,107,0.0,0.0,89,0.00,,,0.00,102,WeatherTracker,2013-01-31 16:08:00,
2013-01-31 08:13:00,40.5,37.5,30.31,ESE,107,0.0,0.0,89,0.00,,,0.00,116,WeatherTracker,2013-01-31 16:13:00,
2013-01-31 08:18:00,41.3,38.3,30.31,ESE,103,0.0,0.0,89,0.00,,,0.00,134,WeatherTracker,2013-01-31 16:18:00,
2013-01-31 08:23:00,42.3,39.3,30.31,East,99,0.0,0.0,89,0.00,,,0.00,146,WeatherTracker,2013-01-31 16:23:00,
2013-01-31 08:28:00,43.4,40.4,30.31,NE,55,0.0,0.0,89,0.00,,,0.00,169,WeatherTracker,2013-01-31 16:28:00,
2013-01-31 08:33:00,44.4,41.4,30.31,NNE,15,0.0,0.0,89,0.00,,,0.00,186,WeatherTracker,2013-01-31 16:33:00,
2013-01-31 08:38:00,45.3,42.3,30.31,NNE,13,0.0,0.0,89,0.00,,,0.00,204,WeatherTracker,2013-01-31 16:38:00,
2013-01-31 08:43:00,45.9,42.8,30.32,NNE,13,0.0,0.0,89,0.00,,,0.00,221,WeatherTracker,2013-01-31 16:43:00,
2013-01-31 08:48:00,46.5,43.1,30.32,NNE,13,0.0,0.0,88,0.00,,,0.00,234,WeatherTracker,2013-01-31 16:48:00,
2013-01-31 08:53:00,47.2,43.8,30.32,NNE,13,0.0,0.0,88,0.00,,,0.00,248,WeatherTracker,2013-01-31 16:53:00,
2013-01-31 08:58:00,47.8,44.1,30.32,NNE,13,0.0,0.0,87,0.00,,,0.00,260,WeatherTracker,2013-01-31 16:58:00,
2013-01-31 09:03:00,48.3,44.3,30.32,NNE,13,0.0,0.0,86,0.00,,,0.00,276,WeatherTracker,2013-01-31 17:03:00,
2013-01-31 09:08:00,49.3,45.0,30.32,NNE,13,0.0,0.0,85,0.00,,,0.00,290,WeatherTracker,2013-01-31 17:08:00,
2013-01-31 09:14:00,50.5,45.5,30.32,NNE,13,0.0,0.0,83,0.00,,,0.00,302,WeatherTracker,2013-01-31 17:14:00,
2013-01-31 09:19:00,51.2,45.6,30.32,NNE,13,0.0,0.0,81,0.00,,,0.00,316,WeatherTracker,2013-01-31 17:19:00,
2013-01-31 09:24:00,52.0,46.0,30.32,NNE,13,0.0,0.0,80,0.00,,,0.00,330,WeatherTracker,2013-01-31 17:24:00,
2013-01-31 09:29:00,52.2,45.9,30.32,NNE,13,0.0,0.0,79,0.00,,,0.00,343,WeatherTracker,2013-01-31 17:29:00,
2013-01-31 09:34:00,52.3,46.0,30.32,NNE,13,0.0,0.0,79,0.00,,,0.00,353,WeatherTracker,2013-01-31 17:34:00,
2013-01-31 09:39:00,52.5,45.5,30.32,NNE,13,0.0,0.0,77,0.00,,,0.00,369,WeatherTracker,2013-01-31 17:39:00,
2013-01-31 09:44:00,52.5,45.5,30.32,NNE,13,0.0,0.0,77,0.00,,,0.00,380,WeatherTracker,2013-01-31 17:44:00,
2013-01-31 09:49:00,53.0,46.0,30.32,NNE,13,0.0,0.0,77,0.00,,,0.00,392,WeatherTracker,2013-01-31 17:49:00,
2013-01-31 09:54:00,53.3,46.3,30.32,NNE,13,0.0,0.0,77,0.00,,,0.00,401,WeatherTracker,2013-01-31 17:54:00,
2013-01-31 09:59:00,54.1,46.4,30.32,NNE,13,0.0,0.0,75,0.00,,,0.00,411,WeatherTracker,2013-01-31 17:59:00,
2013-01-31 10:04:00,54.9,46.8,30.32,NNE,13,0.0,0.0,74,0.00,,,0.00,425,WeatherTracker,2013-01-31 18:04:00,
2013-01-31 10:09:00,55.4,46.9,30.32,NNE,13,0.0,0.0,73,0.00,,,0.00,436,WeatherTracker,2013-01-31 18:09:00,
2013-01-31 10:14:00,55.7,46.8,30.32,NNE,13,0.0,0.0,72,0.00,,,0.00,445,WeatherTracker,2013-01-31 18:14:00,
2013-01-31 10:19:00,55.9,46.6,30.32,NNE,13,0.0,0.0,71,0.00,,,0.00,455,WeatherTracker,2013-01-31 18:19:00,
2013-01-31 10:24:00,56.1,46.5,30.32,NNE,14,0.0,0.0,70,0.00,,,0.00,469,WeatherTracker,2013-01-31 18:24:00,
2013-01-31 10:30:00,56.5,46.8,30.32,NNE,14,0.0,0.0,70,0.00,,,0.00,476,WeatherTracker,2013-01-31 18:30:00,
2013-01-31 10:35:00,56.7,47.0,30.32,NNE,14,0.0,0.0,70,0.00,,,0.00,485,WeatherTracker,2013-01-31 18:35:00,
2013-01-31 10:40:00,57.0,46.9,30.32,NNE,14,0.0,0.0,69,0.00,,,0.00,497,WeatherTracker,2013-01-31 18:40:00,
2013-01-31 10:45:00,57.2,46.7,30.32,NNE,13,0.0,0.0,68,0.00,,,0.00,508,WeatherTracker,2013-01-31 18:45:00,
2013-01-31 10:50:00,57.1,46.6,30.32,NNE,14,0.0,0.0,68,0.00,,,0.00,513,WeatherTracker,2013-01-31 18:50:00,
2013-01-31 10:55:00,57.4,47.3,30.31,NNE,15,0.0,0.0,69,0.00,,,0.00,524,WeatherTracker,2013-01-31 18:55:00,
2013-01-31 11:00:00,58.0,47.5,30.31,NNE,15,0.0,0.0,68,0.00,,,0.00,531,WeatherTracker,2013-01-31 19:00:00,
2013-01-31 11:05:00,58.3,47.4,30.31,NNE,15,0.0,0.0,67,0.00,,,0.00,538,WeatherTracker,2013-01-31 19:05:00,
2013-01-31 11:10:00,58.7,47.4,30.31,NNE,14,0.0,0.0,66,0.00,,,0.00,541,WeatherTracker,2013-01-31 19:10:00,
2013-01-31 11:15:00,59.1,47.3,30.31,NNE,14,0.0,0.0,65,0.00,,,0.00,550,WeatherTracker,2013-01-31 19:15:00,
2013-01-31 11:20:00,59.1,47.3,30.30,NNE,15,0.0,0.0,65,0.00,,,0.00,557,WeatherTracker,2013-01-31 19:20:00,
2013-01-31 11:25:00,59.5,47.3,30.30,NNE,15,0.0,0.0,64,0.00,,,0.00,564,WeatherTracker,2013-01-31 19:25:00,
2013-01-31 11:30:00,59.8,47.6,30.29,NNE,16,0.0,0.0,64,0.00,,,0.00,568,WeatherTracker,2013-01-31 19:30:00,
2013-01-31 11:35:00,59.9,47.3,30.29,NNE,21,0.0,0.0,63,0.00,,,0.00,575,WeatherTracker,2013-01-31 19:35:00,
2013-01-31 11:40:00,59.9,47.3,30.29,NNE,21,0.0,0.0,63,0.00,,,0.00,575,WeatherTracker,2013-01-31 19:40:00,
2013-01-31 11:45:00,60.1,47.5,30.29,NNE,25,0.0,0.0,63,0.00,,,0.00,580,WeatherTracker,2013-01-31 19:45:00,
2013-01-31 11:51:00,60.5,47.4,30.28,NNE,26,0.0,0.0,62,0.00,,,0.00,585,WeatherTracker,2013-01-31 19:51:00,
2013-01-31 11:56:00,60.8,47.3,30.28,NNE,27,0.0,0.0,61,0.00,,,0.00,591,WeatherTracker,2013-01-31 19:56:00,
2013-01-31 12:01:00,60.6,46.6,30.28,NNE,27,0.0,0.0,60,0.00,,,0.00,591,WeatherTracker,2013-01-31 20:01:00,
2013-01-31 12:06:00,60.8,47.3,30.27,NNE,30,0.0,0.0,61,0.00,,,0.00,592,WeatherTracker,2013-01-31 20:06:00,
2013-01-31 12:11:00,61.3,47.3,30.28,NNE,30,0.0,0.0,60,0.00,,,0.00,596,WeatherTracker,2013-01-31 20:11:00,
2013-01-31 12:16:00,61.9,47.4,30.27,NNE,32,0.0,0.0,59,0.00,,,0.00,596,WeatherTracker,2013-01-31 20:16:00,
2013-01-31 12:21:00,62.2,47.7,30.27,NNE,32,0.0,0.0,59,0.00,,,0.00,596,WeatherTracker,2013-01-31 20:21:00,
2013-01-31 12:26:00,62.6,47.6,30.27,NNE,32,0.0,0.0,58,0.00,,,0.00,596,WeatherTracker,2013-01-31 20:26:00,
2013-01-31 12:31:00,63.0,47.5,30.26,NNE,33,0.0,0.0,57,0.00,,,0.00,596,WeatherTracker,2013-01-31 20:31:00,
2013-01-31 12:36:00,63.3,47.8,30.26,NE,38,0.0,0.0,57,0.00,,,0.00,596,WeatherTracker,2013-01-31 20:36:00,
2013-01-31 12:41:00,63.6,48.1,30.26,NE,38,0.0,0.0,57,0.00,,,0.00,596,WeatherTracker,2013-01-31 20:41:00,
2013-01-31 12:46:00,63.8,48.3,30.26,NE,51,0.0,0.0,57,0.00,,,0.00,587,WeatherTracker,2013-01-31 20:46:00,
2013-01-31 12:51:00,63.7,48.2,30.26,East,83,0.0,0.0,57,0.00,,,0.00,591,WeatherTracker,2013-01-31 20:51:00,
2013-01-31 12:56:00,63.7,48.2,30.25,East,92,0.0,0.0,57,0.00,,,0.00,589,WeatherTracker,2013-01-31 20:56:00,
2013-01-31 13:01:00,64.2,48.2,30.25,East,92,0.0,0.0,56,0.00,,,0.00,587,WeatherTracker,2013-01-31 21:01:00,
2013-01-31 13:06:00,64.5,48.0,30.25,East,92,0.0,0.0,55,0.00,,,0.00,584,WeatherTracker,2013-01-31 21:06:00,
2013-01-31 13:11:00,64.4,47.9,30.24,East,92,0.0,0.0,55,0.00,,,0.00,577,WeatherTracker,2013-01-31 21:11:00,
2013-01-31 13:16:00,64.9,48.3,30.24,East,97,0.0,0.0,55,0.00,,,0.00,577,WeatherTracker,2013-01-31 21:16:00,
2013-01-31 13:21:00,65.2,49.1,30.24,East,101,0.0,0.0,56,0.00,,,0.00,568,WeatherTracker,2013-01-31 21:21:00,
2013-01-31 13:26:00,65.7,49.1,30.24,ESE,103,0.0,0.0,55,0.00,,,0.00,561,WeatherTracker,2013-01-31 21:26:00,
2013-01-31 13:31:00,65.7,48.6,30.23,ESE,103,0.0,0.0,54,0.00,,,0.00,555,WeatherTracker,2013-01-31 21:31:00,
2013-01-31 13:36:00,65.6,48.5,30.23,ESE,103,0.0,0.0,54,0.00,,,0.00,547,WeatherTracker,2013-01-31 21:36:00,
2013-01-31 13:41:00,65.6,49.0,30.24,ESE,123,0.0,0.0,55,0.00,,,0.00,540,WeatherTracker,2013-01-31 21:41:00,
2013-01-31 13:46:00,65.6,49.0,30.24,SE,126,0.0,0.0,55,0.00,,,0.00,533,WeatherTracker,2013-01-31 21:46:00,
2013-01-31 13:52:00,66.0,48.9,30.23,SE,126,0.0,0.0,54,0.00,,,0.00,526,WeatherTracker,2013-01-31 21:52:00,
2013-01-31 13:57:00,66.2,49.1,30.23,SE,126,0.0,0.0,54,0.00,,,0.00,513,WeatherTracker,2013-01-31 21:57:00,
2013-01-31 14:02:00,66.3,48.6,30.23,SE,126,0.0,0.0,53,0.00,,,0.00,506,WeatherTracker,2013-01-31 22:02:00,
2013-01-31 14:07:00,66.8,49.1,30.23,NNW,334,0.0,1.0,53,0.00,,,0.00,499,WeatherTracker,2013-01-31 22:07:00,
2013-01-31 14:12:00,67.3,48.5,30.23,NNW,336,1.0,1.0,51,0.00,,,0.00,490,WeatherTracker,2013-01-31 22:12:00,
2013-01-31 14:17:00,67.4,48.6,30.23,NW,321,0.0,1.0,51,0.00,,,0.00,492,WeatherTracker,2013-01-31 22:17:00,
2013-01-31 14:22:00,67.3,48.5,30.23,NW,312,0.0,2.0,51,0.00,,,0.00,485,WeatherTracker,2013-01-31 22:22:00,
2013-01-31 14:27:00,67.1,48.4,30.23,NNW,336,1.0,2.0,51,0.00,,,0.00,469,WeatherTracker,2013-01-31 22:27:00,
2013-01-31 14:32:00,67.1,47.8,30.23,NNW,344,0.0,2.0,50,0.00,,,0.00,462,WeatherTracker,2013-01-31 22:32:00,
2013-01-31 14:37:00,67.0,47.2,30.23,NNW,340,0.0,1.0,49,0.00,,,0.00,450,WeatherTracker,2013-01-31 22:37:00,
2013-01-31 14:42:00,67.1,47.3,30.23,NNW,333,0.0,1.0,49,0.00,,,0.00,443,WeatherTracker,2013-01-31 22:42:00,
2013-01-31 14:47:00,67.2,46.8,30.22,NNW,338,0.0,1.0,48,0.00,,,0.00,434,WeatherTracker,2013-01-31 22:47:00,
2013-01-31 14:52:00,67.4,47.0,30.22,NNW,336,0.0,1.0,48,0.00,,,0.00,425,WeatherTracker,2013-01-31 22:52:00,
2013-01-31 14:57:00,67.6,47.2,30.22,NNW,335,0.0,1.0,48,0.00,,,0.00,415,WeatherTracker,2013-01-31 22:57:00,
2013-01-31 15:02:00,67.6,47.8,30.22,North,351,0.0,2.0,49,0.00,,,0.00,403,WeatherTracker,2013-01-31 23:02:00,
2013-01-31 15:07:00,67.7,48.4,30.21,North,350,0.0,2.0,50,0.00,,,0.00,385,WeatherTracker,2013-01-31 23:07:00,
2013-01-31 15:12:00,67.5,47.7,30.22,North,350,0.0,2.0,49,0.00,,,0.00,371,WeatherTracker,2013-01-31 23:12:00,
2013-01-31 15:17:00,67.5,47.7,30.21,NNW,341,0.0,2.0,49,0.00,,,0.00,359,WeatherTracker,2013-01-31 23:17:00,
2013-01-31 15:23:00,67.4,46.5,30.21,NNW,340,0.0,1.0,47,0.00,,,0.00,352,WeatherTracker,2013-01-31 23:23:00,
2013-01-31 15:28:00,67.2,46.3,30.21,NNW,341,0.0,1.0,47,0.00,,,0.00,336,WeatherTracker,2013-01-31 23:28:00,
2013-01-31 15:33:00,66.9,46.0,30.21,NNW,342,0.0,0.0,47,0.00,,,0.00,320,WeatherTracker,2013-01-31 23:33:00,
2013-01-31 15:38:00,66.7,45.8,30.21,NNW,341,0.0,0.0,47,0.00,,,0.00,309,WeatherTracker,2013-01-31 23:38:00,
2013-01-31 15:43:00,66.6,45.2,30.21,NNW,341,0.0,0.0,46,0.00,,,0.00,290,WeatherTracker,2013-01-31 23:43:00,
2013-01-31 15:48:00,66.4,44.4,30.21,NNW,341,0.0,0.0,45,0.00,,,0.00,274,WeatherTracker,2013-01-31 23:48:00,
2013-01-31 15:53:00,66.3,44.3,30.21,NNW,341,0.0,0.0,45,0.00,,,0.00,255,WeatherTracker,2013-01-31 23:53:00,
2013-01-31 15:58:00,66.2,44.2,30.21,NNW,341,0.0,0.0,45,0.00,,,0.00,79,WeatherTracker,2013-01-31 23:58:00,
2013-01-31 16:03:00,65.9,44.0,30.20,NNW,341,0.0,0.0,45,0.00,,,0.00,39,WeatherTracker,2013-02-01 00:03:00,
2013-01-31 16:08:00,65.2,43.9,30.20,NNW,341,0.0,0.0,46,0.00,,,0.00,46,WeatherTracker,2013-02-01 00:08:00,
2013-01-31 16:13:00,64.5,43.8,30.20,NNW,341,0.0,0.0,47,0.00,,,0.00,84,WeatherTracker,2013-02-01 00:13:00,
2013-01-31 16:18:00,63.9,42.7,30.20,NNW,341,0.0,0.0,46,0.00,,,0.00,81,WeatherTracker,2013-02-01 00:18:00,
2013-01-31 16:23:00,63.5,43.5,30.20,NNW,341,0.0,0.0,48,0.00,,,0.00,67,WeatherTracker,2013-02-01 00:23:00,
2013-01-31 16:28:00,63.2,43.2,30.20,NNW,341,0.0,0.0,48,0.00,,,0.00,51,WeatherTracker,2013-02-01 00:28:00,
2013-01-31 16:33:00,62.9,42.9,30.20,NNW,341,0.0,0.0,48,0.00,,,0.00,51,WeatherTracker,2013-02-01 00:33:00,
2013-01-31 16:38:00,62.6,43.2,30.20,NNW,341,0.0,0.0,49,0.00,,,0.00,26,WeatherTracker,2013-02-01 00:38:00,
2013-01-31 16:43:00,62.2,43.8,30.20,NNW,341,0.0,0.0,51,0.00,,,0.00,25,WeatherTracker,2013-02-01 00:43:00,
2013-01-31 16:48:00,61.8,44.0,30.20,NNW,341,0.0,0.0,52,0.00,,,0.00,23,WeatherTracker,2013-02-01 00:48:00,
2013-01-31 16:53:00,61.4,44.1,30.20,NNW,341,0.0,0.0,53,0.00,,,0.00,21,WeatherTracker,2013-02-01 00:53:00,
2013-01-31 16:58:00,60.9,44.1,30.20,NNW,341,0.0,0.0,54,0.00,,,0.00,19,WeatherTracker,2013-02-01 00:58:00,
2013-01-31 17:03:00,60.3,44.1,30.20,NNW,341,0.0,0.0,55,0.00,,,0.00,18,WeatherTracker,2013-02-01 01:03:00,
2013-01-31 17:08:00,59.8,44.1,30.20,NNW,341,0.0,0.0,56,0.00,,,0.00,16,WeatherTracker,2013-02-01 01:08:00,
2013-01-31 17:13:00,59.3,44.1,30.20,NNW,341,0.0,0.0,57,0.00,,,0.00,12,WeatherTracker,2013-02-01 01:13:00,
2013-01-31 17:19:00,59.1,43.9,30.20,NNW,341,0.0,0.0,57,0.00,,,0.00,11,WeatherTracker,2013-02-01 01:19:00,
2013-01-31 17:24:00,58.6,43.9,30.20,NNW,341,0.0,0.0,58,0.00,,,0.00,7,WeatherTracker,2013-02-01 01:24:00,
2013-01-31 17:29:00,58.0,43.8,30.20,NNW,341,0.0,0.0,59,0.00,,,0.00,5,WeatherTracker,2013-02-01 01:29:00,
2013-01-31 17:34:00,57.5,43.7,30.20,NNW,341,0.0,0.0,60,0.00,,,0.00,0,WeatherTracker,2013-02-01 01:34:00,
2013-01-31 17:39:00,56.9,44.0,30.20,NNW,341,0.0,0.0,62,0.00,,,0.00,0,WeatherTracker,2013-02-01 01:39:00,
2013-01-31 17:44:00,56.4,44.0,30.20,NNW,341,0.0,0.0,63,0.00,,,0.00,0,WeatherTracker,2013-02-01 01:44:00,
2013-01-31 17:49:00,55.9,43.9,30.20,NNW,341,0.0,0.0,64,0.00,,,0.00,0,WeatherTracker,2013-02-01 01:49:00,
2013-01-31 17:54:00,55.4,43.8,30.20,NNW,341,0.0,0.0,65,0.00,,,0.00,0,WeatherTracker,2013-02-01 01:54:00,
2013-01-31 17:59:00,54.8,43.7,30.20,NNW,341,0.0,0.0,66,0.00,,,0.00,0,WeatherTracker,2013-02-01 01:59:00,
2013-01-31 18:04:00,54.3,44.0,30.20,NNW,341,0.0,0.0,68,0.00,,,0.00,0,WeatherTracker,2013-02-01 02:04:00,
2013-01-31 18:09:00,53.9,43.6,30.20,NNW,341,0.0,0.0,68,0.00,,,0.00,0,WeatherTracker,2013-02-01 02:09:00,
2013-01-31 18:14:00,53.4,43.5,30.20,NNW,341,0.0,0.0,69,0.00,,,0.00,0,WeatherTracker,2013-02-01 02:14:00,
2013-01-31 18:19:00,53.1,43.6,30.20,NNW,341,0.0,0.0,70,0.00,,,0.00,0,WeatherTracker,2013-02-01 02:19:00,
2013-01-31 18:24:00,52.8,43.3,30.20,NNW,341,0.0,0.0,70,0.00,,,0.00,0,WeatherTracker,2013-02-01 02:24:00,
2013-01-31 18:29:00,52.6,43.5,30.20,NNW,341,0.0,0.0,71,0.00,,,0.00,0,WeatherTracker,2013-02-01 02:29:00,
2013-01-31 18:34:00,52.3,43.2,30.20,NNW,341,0.0,0.0,71,0.00,,,0.00,0,WeatherTracker,2013-02-01 02:34:00,
2013-01-31 18:40:00,52.0,43.3,30.20,NNW,341,0.0,0.0,72,0.00,,,0.00,0,WeatherTracker,2013-02-01 02:40:00,
2013-01-31 18:45:00,51.9,43.5,30.20,NNW,341,0.0,0.0,73,0.00,,,0.00,0,WeatherTracker,2013-02-01 02:45:00,
2013-01-31 18:50:00,51.7,43.3,30.20,NNW,341,0.0,0.0,73,0.00,,,0.00,0,WeatherTracker,2013-02-01 02:50:00,
2013-01-31 18:55:00,51.4,43.0,30.20,NNW,341,0.0,0.0,73,0.00,,,0.00,0,WeatherTracker,2013-02-01 02:55:00,
2013-01-31 19:00:00,51.0,43.0,30.20,NNW,341,0.0,0.0,74,0.00,,,0.00,0,WeatherTracker,2013-02-01 03:00:00,
2013-01-31 19:05:00,50.6,42.6,30.20,NNW,341,0.0,0.0,74,0.00,,,0.00,0,WeatherTracker,2013-02-01 03:05:00,
2013-01-31 19:10:00,50.2,42.6,30.20,NNW,341,0.0,0.0,75,0.00,,,0.00,0,WeatherTracker,2013-02-01 03:10:00,
2013-01-31 19:15:00,49.9,42.6,30.20,NNW,341,0.0,0.0,76,0.00,,,0.00,0,WeatherTracker,2013-02-01 03:15:00,
2013-01-31 19:20:00,49.6,42.3,30.20,NNW,341,0.0,0.0,76,0.00,,,0.00,0,WeatherTracker,2013-02-01 03:20:00,
2013-01-31 19:25:00,49.4,42.5,30.20,NNW,341,0.0,0.0,77,0.00,,,0.00,0,WeatherTracker,2013-02-01 03:25:00,
2013-01-31 19:30:00,49.3,42.4,30.20,NNW,341,0.0,0.0,77,0.00,,,0.00,0,WeatherTracker,2013-02-01 03:30:00,
2013-01-31 19:35:00,49.0,42.4,30.20,NNW,341,0.0,0.0,78,0.00,,,0.00,0,WeatherTracker,2013-02-01 03:35:00,
2013-01-31 19:40:00,48.8,42.2,30.20,NNW,341,0.0,0.0,78,0.00,,,0.00,0,WeatherTracker,2013-02-01 03:40:00,
2013-01-31 19:45:00,48.5,42.3,30.20,NNW,341,0.0,0.0,79,0.00,,,0.00,0,WeatherTracker,2013-02-01 03:45:00,
2013-01-31 19:50:00,48.3,43.4,30.20,NNW,341,0.0,0.0,83,0.00,,,0.00,0,WeatherTracker,2013-02-01 03:50:00,
2013-01-31 19:56:00,48.0,42.1,30.20,NNW,341,0.0,0.0,80,0.00,,,0.00,0,WeatherTracker,2013-02-01 03:56:00,
2013-01-31 20:01:00,47.8,41.9,30.20,NNW,341,0.0,0.0,80,0.00,,,0.00,0,WeatherTracker,2013-02-01 04:01:00,
2013-01-31 20:06:00,47.6,41.7,30.20,NNW,341,0.0,0.0,80,0.00,,,0.00,0,WeatherTracker,2013-02-01 04:06:00,
2013-01-31 20:11:00,47.4,41.9,30.20,NNW,341,0.0,0.0,81,0.00,,,0.00,0,WeatherTracker,2013-02-01 04:11:00,
2013-01-31 20:16:00,47.2,41.7,30.20,NNW,341,0.0,0.0,81,0.00,,,0.00,0,WeatherTracker,2013-02-01 04:16:00,
2013-01-31 20:21:00,47.0,41.8,30.21,NNW,341,0.0,0.0,82,0.00,,,0.00,0,WeatherTracker,2013-02-01 04:21:00,
2013-01-31 20:26:00,47.0,41.8,30.20,NNW,341,0.0,0.0,82,0.00,,,0.00,0,WeatherTracker,2013-02-01 04:26:00,
2013-01-31 20:31:00,46.8,41.6,30.21,NNW,341,0.0,0.0,82,0.00,,,0.00,0,WeatherTracker,2013-02-01 04:31:00,
2013-01-31 20:36:00,46.7,41.5,30.20,NNW,341,0.0,0.0,82,0.00,,,0.00,0,WeatherTracker,2013-02-01 04:36:00,
2013-01-31 20:41:00,46.7,41.8,30.20,NNW,341,0.0,0.0,83,0.00,,,0.00,0,WeatherTracker,2013-02-01 04:41:00,
2013-01-31 20:46:00,46.5,41.6,30.20,NNW,341,0.0,0.0,83,0.00,,,0.00,0,WeatherTracker,2013-02-01 04:46:00,
2013-01-31 20:51:00,46.4,41.5,30.21,NNW,341,0.0,0.0,83,0.00,,,0.00,0,WeatherTracker,2013-02-01 04:51:00,
2013-01-31 20:56:00,46.3,41.4,30.21,NNW,341,0.0,0.0,83,0.00,,,0.00,0,WeatherTracker,2013-02-01 04:56:00,
2013-01-31 21:00:00,46.2,41.3,30.21,NNW,341,0.0,0.0,83,0.00,,,0.00,0,WeatherTracker,2013-02-01 05:00:00,
2013-01-31 21:03:00,46.1,41.2,30.21,NNW,341,0.0,0.0,83,0.00,,,0.00,0,WeatherTracker,2013-02-01 05:03:00,
2013-01-31 21:08:00,45.9,41.0,30.21,NNW,341,0.0,0.0,83,0.00,,,0.00,0,WeatherTracker,2013-02-01 05:08:00,
2013-01-31 21:13:00,45.7,41.1,30.21,NNW,341,0.0,0.0,84,0.00,,,0.00,0,WeatherTracker,2013-02-01 05:13:00,
2013-01-31 21:18:00,45.6,41.0,30.21,NNW,341,0.0,0.0,84,0.00,,,0.00,0,WeatherTracker,2013-02-01 05:18:00,
2013-01-31 21:23:00,45.5,41.0,30.21,NNW,341,0.0,0.0,84,0.00,,,0.00,0,WeatherTracker,2013-02-01 05:23:00,
2013-01-31 21:28:00,45.4,40.9,30.21,NNW,341,0.0,0.0,84,0.00,,,0.00,0,WeatherTracker,2013-02-01 05:28:00,
2013-01-31 21:33:00,45.4,40.9,30.21,NNW,338,0.0,0.0,84,0.00,,,0.00,0,WeatherTracker,2013-02-01 05:33:00,
2013-01-31 21:38:00,45.4,40.9,30.21,NNW,337,0.0,0.0,84,0.00,,,0.00,0,WeatherTracker,2013-02-01 05:38:00,
2013-01-31 21:43:00,45.4,40.9,30.21,NNW,337,0.0,0.0,84,0.00,,,0.00,0,WeatherTracker,2013-02-01 05:43:00,
2013-01-31 21:48:00,45.4,40.9,30.21,NNW,337,0.0,0.0,84,0.00,,,0.00,0,WeatherTracker,2013-02-01 05:48:00,
2013-01-31 21:53:00,45.4,40.5,30.21,NNW,337,0.0,0.0,83,0.00,,,0.00,0,WeatherTracker,2013-02-01 05:53:00,
2013-01-31 21:58:00,45.4,40.5,30.21,NNW,337,0.0,0.0,83,0.00,,,0.00,0,WeatherTracker,2013-02-01 05:58:00,
2013-01-31 22:03:00,45.3,40.4,30.21,NNW,337,0.0,0.0,83,0.00,,,0.00,0,WeatherTracker,2013-02-01 06:03:00,
2013-01-31 22:08:00,45.2,40.3,30.21,NNW,337,0.0,0.0,83,0.00,,,0.00,0,WeatherTracker,2013-02-01 06:08:00,
2013-01-31 22:14:00,45.1,40.3,30.21,NNW,337,0.0,0.0,83,0.00,,,0.00,0,WeatherTracker,2013-02-01 06:14:00,
2013-01-31 22:19:00,45.0,40.2,30.21,NNW,337,0.0,0.0,83,0.00,,,0.00,0,WeatherTracker,2013-02-01 06:19:00,
2013-01-31 22:24:00,44.8,40.0,30.21,NNW,337,0.0,0.0,83,0.00,,,0.00,0,WeatherTracker,2013-02-01 06:24:00,
2013-01-31 22:29:00,44.7,39.9,30.21,NNW,336,0.0,0.0,83,0.00,,,0.00,0,WeatherTracker,2013-02-01 06:29:00,
2013-01-31 22:34:00,44.6,39.8,30.21,NNW,336,0.0,0.0,83,0.00,,,0.00,0,WeatherTracker,2013-02-01 06:34:00,
2013-01-31 22:39:00,44.5,39.7,30.21,NNW,335,0.0,0.0,83,0.00,,,0.00,0,WeatherTracker,2013-02-01 06:39:00,
2013-01-31 22:44:00,44.5,39.7,30.21,NNW,329,0.0,0.0,83,0.00,,,0.00,0,WeatherTracker,2013-02-01 06:44:00,
2013-01-31 22:49:00,44.5,39.7,30.21,NNW,327,0.0,0.0,83,0.00,,,0.00,0,WeatherTracker,2013-02-01 06:49:00,
2013-01-31 22:54:00,44.6,39.8,30.21,NW,323,0.0,0.0,83,0.00,,,0.00,0,WeatherTracker,2013-02-01 06:54:00,
2013-01-31 22:59:00,44.8,40.0,30.21,NW,323,0.0,0.0,83,0.00,,,0.00,0,WeatherTracker,2013-02-01 06:59:00,
2013-01-31 23:04:00,44.8,39.6,30.21,NW,323,0.0,0.0,82,0.00,,,0.00,0,WeatherTracker,2013-02-01 07:04:00,
2013-01-31 23:09:00,44.8,39.6,30.21,NW,323,0.0,0.0,82,0.00,,,0.00,0,WeatherTracker,2013-02-01 07:09:00,
2013-01-31 23:14:00,44.7,39.5,30.21,NW,323,0.0,0.0,82,0.00,,,0.00,0,WeatherTracker,2013-02-01 07:14:00,
2013-01-31 23:19:00,44.5,39.4,30.21,NW,323,0.0,0.0,82,0.00,,,0.00,0,WeatherTracker,2013-02-01 07:19:00,
2013-01-31 23:24:00,44.3,39.2,30.21,NW,323,0.0,0.0,82,0.00,,,0.00,0,WeatherTracker,2013-02-01 07:24:00,
2013-01-31 23:29:00,44.1,39.0,30.21,NW,323,0.0,0.0,82,0.00,,,0.00,0,WeatherTracker,2013-02-01 07:29:00,
2013-01-31 23:34:00,43.9,39.1,30.21,NW,323,0.0,0.0,83,0.00,,,0.00,0,WeatherTracker,2013-02-01 07:34:00,
2013-01-31 23:40:00,43.7,38.9,30.21,NW,323,0.0,0.0,83,0.00,,,0.00,0,WeatherTracker,2013-02-01 07:40:00,
2013-01-31 23:45:00,43.6,39.1,30.21,NW,323,0.0,0.0,84,0.00,,,0.00,0,WeatherTracker,2013-02-01 07:45:00,
2013-01-31 23:50:00,43.7,39.2,30.21,NW,323,0.0,0.0,84,0.00,,,0.00,0,WeatherTracker,2013-02-01 07:50:00,
2013-01-31 23:55:00,43.7,39.2,30.21,NW,322,0.0,0.0,84,0.00,,,0.00,0,WeatherTracker,2013-02-01 07:55:00,